Time;durP1;ratioP1;P1;durP2;ratioP2;P2;SDS_P1;SDS_P2;PMS_P1;PMS_P2;Temp;Humidity;BMP_temperature;BMP_pressure;BME280_temperature;BME280_humidity;BME280_pressure;Samples;Min_cycle;Max_cycle;Signal;HPM_P1;HPM_P2
2022/01/30 00:01:48;;;;;;;2.53;1.30;;;;;;;8.63;92.65;98952.78;4127920;28;20214;-88
2022/01/30 00:03:51;;;;;;;4.32;1.60;;;;;;;8.64;92.89;98959.69;4144926;28;20335;-88
2022/01/30 00:05:54;;;;;;;2.30;1.45;;;;;;;8.65;92.47;98948.38;4125098;28;20711;-89
2022/01/30 00:07:58;;;;;;;1.85;1.42;;;;;;;8.67;92.39;98946.53;4127074;28;20271;-89
2022/01/30 00:10:01;;;;;;;2.30;1.60;;;;;;;8.64;93.08;98949.28;4146029;28;20261;-89
2022/01/30 00:12:05;;;;;;;1.80;1.35;;;;;;;8.64;93.17;98949.28;4126572;28;20209;-89
2022/01/30 00:14:12;;;;;;;2.10;1.67;;;;;;;8.62;94.17;98948.53;4141785;28;20251;-88
2022/01/30 00:16:19;;;;;;;2.17;1.60;;;;;;;8.60;93.89;98942.53;4131598;28;20200;-89
2022/01/30 00:18:40;;;;;;;2.25;1.50;;;;;;;8.58;95.04;98946.97;4134097;28;20255;-88
2022/01/30 00:20:47;;;;;;;2.38;2.05;;;;;;;8.60;93.97;98934.72;4161752;28;20202;-89
2022/01/30 00:22:59;;;;;;;2.30;1.90;;;;;;;8.57;95.06;98942.69;4120515;28;20226;-89
2022/01/30 00:25:06;;;;;;;4.38;1.63;;;;;;;8.54;95.05;98932.44;4128062;28;20296;-89
2022/01/30 00:27:16;;;;;;;2.17;1.73;;;;;;;8.57;94.47;98920.13;4148879;28;20206;-89
2022/01/30 00:29:19;;;;;;;2.08;1.45;;;;;;;8.58;94.81;98931.38;4144682;28;20723;-89
2022/01/30 00:31:25;;;;;;;2.20;1.50;;;;;;;8.60;94.51;98921.72;4132977;28;20219;-89
2022/01/30 00:33:48;;;;;;;2.63;1.95;;;;;;;8.60;95.04;98916.53;4132124;28;20718;-88
2022/01/30 00:35:54;;;;;;;2.70;2.00;;;;;;;8.57;95.07;98908.91;4144231;28;20209;-89
2022/01/30 00:37:57;;;;;;;1.90;1.60;;;;;;;8.59;94.86;98922.66;4127705;28;20220;-89
2022/01/30 00:40:15;;;;;;;2.15;1.75;;;;;;;8.59;94.42;98928.69;4145100;28;20278;-89
2022/01/30 00:42:18;;;;;;;2.83;1.70;;;;;;;8.58;94.79;98934.78;4143471;28;20212;-88
2022/01/30 00:44:22;;;;;;;2.65;2.08;;;;;;;8.59;94.39;98931.28;4144169;28;20692;-89
2022/01/30 00:46:27;;;;;;;2.67;1.90;;;;;;;8.57;95.15;98933.13;4145039;28;20255;-89
2022/01/30 00:48:30;;;;;;;4.03;1.70;;;;;;;8.58;94.44;98929.59;4161762;28;20207;-89
2022/01/30 00:50:36;;;;;;;3.08;1.92;;;;;;;8.57;94.90;98925.34;4128667;28;20209;-89
2022/01/30 00:52:39;;;;;;;2.58;1.75;;;;;;;8.62;95.53;98945.91;4126221;28;20204;-89
2022/01/30 00:54:44;;;;;;;4.15;2.00;;;;;;;8.61;95.52;98929.44;4131287;28;20269;-89
2022/01/30 00:56:47;;;;;;;2.50;1.80;;;;;;;8.62;96.09;98941.53;4122678;28;20311;-89
2022/01/30 00:58:50;;;;;;;2.60;2.05;;;;;;;8.58;95.14;98945.19;4121203;28;20211;-88
2022/01/30 01:00:53;;;;;;;3.75;2.60;;;;;;;8.55;95.74;98941.91;4122990;28;20208;-88
2022/01/30 01:02:58;;;;;;;2.30;1.90;;;;;;;8.55;95.75;98941.91;4135958;28;20232;-88
2022/01/30 01:05:05;;;;;;;2.30;1.90;;;;;;;8.57;94.83;98940.09;4137354;28;20303;-88
2022/01/30 01:07:14;;;;;;;2.15;1.90;;;;;;;8.57;94.56;98948.72;4128590;28;20216;-89
2022/01/30 01:09:21;;;;;;;3.35;1.90;;;;;;;8.58;95.39;98955.59;4133037;28;20218;-89
2022/01/30 01:11:57;;;;;;;2.70;2.00;;;;;;;8.59;94.49;98959.88;4129676;28;20622;-89
2022/01/30 01:20:48;;;;;;;3.15;2.33;;;;;;;8.58;95.49;98960.78;4136989;28;21233;-89
2022/01/30 01:23:37;;;;;;;2.35;1.70;;;;;;;8.49;95.61;98978.59;4141168;28;20227;-88
2022/01/30 01:25:40;;;;;;;2.90;2.00;;;;;;;8.51;96.96;98963.78;4127340;28;20263;-89
2022/01/30 01:27:43;;;;;;;5.07;2.15;;;;;;;8.53;95.11;98962.78;4128036;28;20620;-88
2022/01/30 01:29:46;;;;;;;4.63;2.15;;;;;;;8.53;94.85;98960.16;4147115;28;20282;-90
2022/01/30 01:31:49;;;;;;;2.17;1.90;;;;;;;8.52;94.99;98950.72;4121907;28;20200;-88
2022/01/30 01:34:09;;;;;;;2.33;2.10;;;;;;;8.49;95.27;98937.84;4132483;28;20204;-88
2022/01/30 01:36:12;;;;;;;3.75;1.80;;;;;;;8.47;96.06;98941.44;4136539;28;20210;-88
2022/01/30 01:38:19;;;;;;;3.50;2.28;;;;;;;8.50;96.38;98942.13;4137367;28;20196;-89
2022/01/30 01:40:22;;;;;;;2.05;1.65;;;;;;;8.50;97.38;98943.88;4137459;28;20211;-89
2022/01/30 01:42:29;;;;;;;4.32;1.77;;;;;;;8.52;97.29;98937.72;4124094;28;20247;-89
2022/01/30 01:44:37;;;;;;;2.60;1.83;;;;;;;8.53;96.12;98948.94;4142698;28;20711;-89
2022/01/30 01:46:42;;;;;;;2.15;1.73;;;;;;;8.51;96.14;98959.41;4141198;28;20199;-88
2022/01/30 01:48:48;;;;;;;2.58;2.15;;;;;;;8.52;96.37;98970.63;4144343;28;20227;-88
2022/01/30 01:51:03;;;;;;;3.33;2.78;;;;;;;8.50;96.00;98965.50;4143719;28;20213;-89
2022/01/30 01:53:08;;;;;;;3.13;2.45;;;;;;;8.50;96.38;98973.31;4128869;28;20212;-89
2022/01/30 01:55:11;;;;;;;3.30;2.13;;;;;;;8.52;96.22;98968.03;4130163;28;20207;-89
2022/01/30 01:57:17;;;;;;;3.33;2.50;;;;;;;8.54;96.99;98966.25;4142507;28;20286;-89
2022/01/30 01:59:28;;;;;;;3.03;2.30;;;;;;;8.55;96.88;98970.50;4135259;28;20204;-88
2022/01/30 02:01:39;;;;;;;2.63;2.00;;;;;;;8.53;97.00;98946.34;4144857;28;20235;-88
2022/01/30 02:03:44;;;;;;;2.28;2.05;;;;;;;8.56;95.91;98954.00;4128577;28;20228;-89
2022/01/30 02:05:53;;;;;;;3.42;2.30;;;;;;;8.52;96.89;98944.66;4142430;28;20212;-88
2022/01/30 02:08:25;;;;;;;3.88;2.40;;;;;;;8.55;96.92;98941.91;4125034;28;20330;-89
2022/01/30 02:10:35;;;;;;;2.50;2.20;;;;;;;8.56;97.15;98946.19;4126259;28;20213;-89
2022/01/30 02:12:46;;;;;;;5.88;2.45;;;;;;;8.57;96.86;98945.31;4125206;28;20204;-88
2022/01/30 02:15:05;;;;;;;3.08;2.78;;;;;;;8.55;96.38;98945.38;4143000;28;20922;-89
2022/01/30 02:24:43;;;;;;;2.35;2.00;;;;;;;8.54;96.26;98932.44;4141029;28;20634;-89
2022/01/30 02:26:47;;;;;;;3.20;2.42;;;;;;;8.56;95.97;98925.41;4140586;28;20214;-89
2022/01/30 02:28:53;;;;;;;2.55;1.80;;;;;;;8.53;96.12;98928.16;4116644;28;20240;-88
2022/01/30 02:31:01;;;;;;;2.85;1.83;;;;;;;8.51;95.81;98930.00;4118685;28;20213;-89
2022/01/30 02:33:04;;;;;;;2.90;1.95;;;;;;;8.49;95.11;98929.19;4119509;28;20197;-88
2022/01/30 02:35:08;;;;;;;2.50;1.60;;;;;;;8.47;94.91;98936.22;4143016;28;20248;-88
2022/01/30 02:37:13;;;;;;;2.40;1.80;;;;;;;8.49;95.61;98939.59;4139146;28;20271;-88
2022/01/30 02:39:18;;;;;;;2.58;1.58;;;;;;;8.46;95.71;98939.72;4141919;28;20219;-88
2022/01/30 02:41:22;;;;;;;3.15;1.90;;;;;;;8.46;95.76;98937.13;4137996;28;20238;-88
2022/01/30 02:43:30;;;;;;;3.40;1.90;;;;;;;8.45;94.69;98923.31;4117271;28;20464;-88
2022/01/30 02:45:37;;;;;;;1.70;1.30;;;;;;;8.45;95.67;98932.88;4121720;28;20741;-89
2022/01/30 02:47:54;;;;;;;1.98;1.40;;;;;;;8.43;95.77;98932.06;4139073;28;20749;-89
2022/01/30 02:50:11;;;;;;;2.70;1.92;;;;;;;8.45;95.65;98949.28;4124821;28;20204;-89
2022/01/30 02:52:15;;;;;;;3.07;2.00;;;;;;;8.42;94.42;98942.53;4122998;28;20212;-90
2022/01/30 02:54:18;;;;;;;2.47;1.60;;;;;;;8.46;94.55;98951.00;4139534;28;20705;-89
2022/01/30 02:56:23;;;;;;;4.05;1.75;;;;;;;8.46;94.37;98950.13;4140946;28;20216;-89
2022/01/30 02:58:26;;;;;;;2.10;1.52;;;;;;;8.44;95.32;98954.56;4142418;28;20303;-89
2022/01/30 03:00:29;;;;;;;2.20;1.97;;;;;;;8.46;95.42;98965.72;4141629;28;20208;-88
2022/01/30 03:02:32;;;;;;;2.00;1.57;;;;;;;8.47;95.81;98957.03;4134106;28;20647;-88
2022/01/30 03:04:36;;;;;;;2.60;1.75;;;;;;;8.48;94.70;98962.16;4159603;28;21094;-89
2022/01/30 03:06:40;;;;;;;3.55;2.17;;;;;;;8.48;93.98;98959.56;4152823;28;20212;-88
2022/01/30 03:08:50;;;;;;;3.30;1.90;;;;;;;8.47;94.30;98951.81;4121678;28;20201;-88
2022/01/30 03:10:55;;;;;;;2.78;2.35;;;;;;;8.48;94.62;98966.53;4121307;28;20697;-89
2022/01/30 03:12:59;;;;;;;5.65;2.25;;;;;;;8.46;93.86;98965.72;4124527;28;20236;-89
2022/01/30 03:15:03;;;;;;;3.80;2.53;;;;;;;8.48;93.83;98956.13;4121967;28;20209;-89
2022/01/30 03:17:06;;;;;;;2.97;1.70;;;;;;;8.47;94.38;98965.66;4154515;28;20231;-89
2022/01/30 03:19:09;;;;;;;2.40;1.90;;;;;;;8.48;94.48;98964.75;4141096;28;20998;-89
2022/01/30 03:21:13;;;;;;;3.30;1.90;;;;;;;8.45;94.07;98966.66;4129590;28;20583;-89
2022/01/30 03:23:16;;;;;;;3.10;2.27;;;;;;;8.51;94.18;98967.22;4139955;28;20200;-88
2022/01/30 03:25:19;;;;;;;2.70;1.90;;;;;;;8.49;93.69;98960.38;4140400;28;20690;-87
2022/01/30 03:27:31;;;;;;;5.05;2.85;;;;;;;8.49;92.93;98960.38;4126603;28;20211;-89
2022/01/30 03:29:37;;;;;;;3.63;2.78;;;;;;;8.49;93.40;98960.38;4125277;28;20665;-88
2022/01/30 03:31:43;;;;;;;2.78;2.30;;;;;;;8.49;92.75;98960.38;4131398;28;20267;-88
2022/01/30 03:33:48;;;;;;;5.07;3.10;;;;;;;8.45;94.07;98971.84;4143017;28;20200;-89
2022/01/30 03:35:54;;;;;;;3.10;2.25;;;;;;;8.44;94.10;98972.75;4123674;28;20219;-89
2022/01/30 03:37:58;;;;;;;3.57;2.30;;;;;;;8.42;93.63;98979.78;4141332;28;20231;-90
2022/01/30 03:40:01;;;;;;;2.73;2.43;;;;;;;8.42;93.87;98979.78;4127003;28;20742;-89
2022/01/30 03:42:09;;;;;;;2.70;2.30;;;;;;;8.42;93.15;98982.38;4143603;28;20634;-88
2022/01/30 03:44:12;;;;;;;3.85;2.60;;;;;;;8.41;93.42;98978.09;4143964;28;20659;-88
2022/01/30 03:46:18;;;;;;;4.13;2.60;;;;;;;8.40;94.21;98976.41;4126909;28;20291;-88
2022/01/30 03:48:42;;;;;;;3.47;2.20;;;;;;;8.41;94.76;98983.28;4130428;28;20631;-88
2022/01/30 03:50:51;;;;;;;2.55;2.00;;;;;;;8.37;94.75;98971.34;4127182;28;20204;-89
2022/01/30 03:52:57;;;;;;;3.47;2.22;;;;;;;8.42;93.90;98979.78;4127337;28;20236;-88
2022/01/30 03:55:01;;;;;;;2.55;2.10;;;;;;;8.42;93.42;98984.13;4132393;28;20259;-88
2022/01/30 03:57:06;;;;;;;4.15;2.30;;;;;;;8.37;92.70;98986.09;4128650;28;20232;-88
2022/01/30 03:59:11;;;;;;;5.60;2.83;;;;;;;8.33;93.19;99001.00;4120977;28;20200;-88
2022/01/30 04:01:14;;;;;;;4.05;2.28;;;;;;;8.37;93.71;99002.53;4142480;28;20642;-88
2022/01/30 04:03:19;;;;;;;3.83;2.40;;;;;;;8.32;92.88;98991.50;4123612;28;20217;-88
2022/01/30 04:05:22;;;;;;;4.20;2.92;;;;;;;8.35;94.22;99003.53;4126130;28;21140;-88
2022/01/30 04:07:26;;;;;;;3.80;2.43;;;;;;;8.28;93.24;98995.13;4126037;28;20212;-89
2022/01/30 04:09:48;;;;;;;3.85;2.30;;;;;;;8.28;93.88;99010.72;4137941;28;20631;-88
2022/01/30 04:12:06;;;;;;;2.75;2.45;;;;;;;8.28;93.08;99009.91;4151461;28;20597;-88
2022/01/30 04:14:22;;;;;;;3.85;2.50;;;;;;;8.28;93.13;99013.31;4124767;28;20725;-88
2022/01/30 04:16:59;;;;;;;3.73;2.50;;;;;;;8.25;94.12;99021.25;4125629;28;20296;-88
2022/01/30 04:19:22;;;;;;;3.03;2.10;;;;;;;8.24;93.38;99021.31;4126655;28;20636;-88
2022/01/30 04:21:34;;;;;;;2.88;2.47;;;;;;;8.21;92.88;99026.66;4128252;28;20266;-89
2022/01/30 04:23:58;;;;;;;5.25;2.70;;;;;;;8.22;93.68;99016.19;4127335;28;20209;-88
2022/01/30 04:26:13;;;;;;;3.50;2.40;;;;;;;8.21;94.53;99009.34;4118760;28;20215;-88
2022/01/30 04:28:35;;;;;;;3.20;2.63;;;;;;;8.24;94.09;99011.81;4137412;28;20204;-88
2022/01/30 04:30:44;;;;;;;6.10;2.70;;;;;;;8.21;94.34;99019.72;4140424;28;20684;-89
2022/01/30 04:33:17;;;;;;;4.70;2.90;;;;;;;8.21;93.80;99011.94;4079643;29;20678;-88
2022/01/30 04:35:52;;;;;;;7.38;3.55;;;;;;;8.19;92.59;99016.34;4123671;28;20648;-89
2022/01/30 04:38:23;;;;;;;3.53;2.63;;;;;;;8.17;94.15;99007.78;4149671;28;20229;-89
2022/01/30 04:41:00;;;;;;;4.68;2.45;;;;;;;8.16;93.65;99015.63;4129730;28;20255;-89
2022/01/30 04:57:00;;;;;;;3.75;2.55;;;;;;;8.20;93.14;99033.63;4125474;28;20216;-88
2022/01/30 04:59:28;;;;;;;3.58;2.40;;;;;;;8.25;92.53;99023.84;4138291;28;20218;-89
2022/01/30 05:02:01;;;;;;;4.18;2.47;;;;;;;8.27;92.24;99022.06;4125388;28;20216;-88
2022/01/30 05:04:22;;;;;;;6.88;3.08;;;;;;;8.32;91.80;99024.44;4159716;28;20207;-88
2022/01/30 05:07:25;;;;;;;4.25;2.60;;;;;;;8.37;92.97;99022.47;4119251;28;20673;-88
2022/01/30 05:09:52;;;;;;;5.40;2.85;;;;;;;8.32;93.10;99040.88;4126220;28;20207;-88
2022/01/30 05:12:09;;;;;;;4.47;2.65;;;;;;;8.34;91.47;99040.81;4129174;28;20209;-89
2022/01/30 05:14:35;;;;;;;5.93;2.70;;;;;;;8.31;92.57;99044.38;4118266;28;20308;-89
2022/01/30 05:16:57;;;;;;;4.88;2.65;;;;;;;8.33;91.71;99041.72;4142272;28;20204;-89
2022/01/30 05:19:18;;;;;;;4.32;2.92;;;;;;;8.36;91.38;99059.75;4139941;28;20210;-89
2022/01/30 05:21:42;;;;;;;4.68;3.08;;;;;;;8.31;92.59;99062.56;4143139;28;20929;-89
2022/01/30 05:24:11;;;;;;;5.43;2.80;;;;;;;8.28;91.44;99065.28;4137541;28;20238;-89
2022/01/30 05:26:21;;;;;;;5.07;2.80;;;;;;;8.31;92.58;99066.94;4124046;28;20256;-90
2022/01/30 05:28:50;;;;;;;7.30;3.10;;;;;;;8.34;91.90;99065.03;4142368;28;20662;-89
2022/01/30 05:31:04;;;;;;;5.05;3.40;;;;;;;8.32;91.63;99069.47;4141647;28;20214;-89
2022/01/30 05:33:26;;;;;;;4.38;2.70;;;;;;;8.30;91.18;99073.03;4143456;28;21165;-89
2022/01/30 05:35:48;;;;;;;5.13;3.00;;;;;;;8.33;91.41;99078.97;4159915;28;20299;-89
2022/01/30 05:38:17;;;;;;;8.00;3.20;;;;;;;8.30;92.36;99086.88;4158704;28;20674;-89
2022/01/30 05:40:41;;;;;;;4.20;2.73;;;;;;;8.31;92.03;99080.75;4139687;28;20199;-89
2022/01/30 05:43:01;;;;;;;5.43;3.50;;;;;;;8.33;90.89;99078.97;4143187;28;20643;-89
2022/01/30 05:45:30;;;;;;;5.45;3.33;;;;;;;8.32;91.09;99076.41;4148230;28;20782;-89
2022/01/30 05:47:55;;;;;;;6.40;3.23;;;;;;;8.25;91.35;99083.63;4140008;28;20295;-89
2022/01/30 05:50:17;;;;;;;4.53;2.77;;;;;;;8.23;91.76;99090.66;4132715;28;20790;-89
2022/01/30 05:52:56;;;;;;;5.20;3.03;;;;;;;8.22;91.17;99094.16;4124719;28;20705;-89
2022/01/30 05:55:14;;;;;;;6.05;3.03;;;;;;;8.20;90.79;99103.78;4144046;28;20666;-88
2022/01/30 05:57:18;;;;;;;6.32;3.30;;;;;;;8.17;91.38;99103.91;4124458;28;20745;-88
2022/01/30 05:59:21;;;;;;;5.50;3.90;;;;;;;8.16;90.46;99112.63;4145124;28;21344;-88
2022/01/30 06:02:03;;;;;;;10.23;3.60;;;;;;;8.14;90.83;99118.78;4113687;28;20341;-89
2022/01/30 06:04:07;;;;;;;3.97;3.13;;;;;;;8.11;91.09;99124.94;4083009;28;20218;-89
2022/01/30 06:06:10;;;;;;;5.15;2.95;;;;;;;8.09;91.31;99126.72;4114516;28;20680;-89
2022/01/30 06:08:16;;;;;;;5.65;2.95;;;;;;;8.08;91.27;99122.44;4130772;28;20216;-88
2022/01/30 06:10:20;;;;;;;8.63;3.25;;;;;;;8.06;91.01;99132.06;4128067;28;20748;-87
2022/01/30 06:12:25;;;;;;;4.72;3.00;;;;;;;8.06;90.71;99134.66;4127763;28;20303;-89
2022/01/30 06:14:29;;;;;;;9.02;3.20;;;;;;;8.07;91.25;99143.28;4139837;28;20213;-88
2022/01/30 06:16:46;;;;;;;7.22;3.05;;;;;;;8.07;91.30;99133.75;4120392;28;20204;-89
2022/01/30 06:19:19;;;;;;;5.10;3.00;;;;;;;8.06;91.47;99136.41;4122529;28;20213;-89
2022/01/30 06:21:42;;;;;;;5.55;3.28;;;;;;;8.03;90.54;99142.56;4142737;28;21214;-89
2022/01/30 06:24:04;;;;;;;6.50;3.60;;;;;;;8.02;89.98;99140.88;4143390;28;20215;-88
2022/01/30 06:26:37;;;;;;;5.35;3.42;;;;;;;8.04;91.21;99146.88;4079340;29;20732;-89
2022/01/30 06:29:00;;;;;;;4.75;2.92;;;;;;;8.05;90.01;99150.31;4155025;28;20216;-89
2022/01/30 06:31:22;;;;;;;5.43;3.13;;;;;;;8.05;89.94;99156.34;4147361;28;20300;-89
2022/01/30 06:33:44;;;;;;;7.15;2.90;;;;;;;8.08;91.17;99165.75;4140458;28;20242;-89
2022/01/30 06:36:13;;;;;;;6.22;3.67;;;;;;;8.08;91.15;99165.75;4138610;28;20196;-89
2022/01/30 06:38:26;;;;;;;8.27;3.53;;;;;;;8.04;91.15;99162.47;4137466;28;20750;-89
2022/01/30 06:40:34;;;;;;;8.48;3.85;;;;;;;8.06;90.93;99170.19;4139813;28;20212;-89
2022/01/30 06:42:40;;;;;;;5.55;3.00;;;;;;;8.07;91.15;99172.72;4159680;28;20210;-89
2022/01/30 06:45:20;;;;;;;12.02;4.45;;;;;;;8.08;91.17;99176.16;4078459;29;20217;-89
2022/01/30 06:47:42;;;;;;;6.78;3.45;;;;;;;8.10;90.51;99175.19;4119083;28;20219;-89
2022/01/30 06:50:04;;;;;;;8.18;4.32;;;;;;;8.09;90.72;99170.91;4146877;28;20214;-88
2022/01/30 06:52:09;;;;;;;8.80;4.20;;;;;;;8.09;90.79;99170.91;4143969;28;20215;-89
2022/01/30 06:54:31;;;;;;;9.13;4.38;;;;;;;8.12;90.50;99177.75;4144368;28;20208;-88
2022/01/30 06:56:55;;;;;;;6.72;3.40;;;;;;;8.08;90.22;99176.16;4144769;28;20204;-88
2022/01/30 06:59:17;;;;;;;5.78;4.03;;;;;;;8.07;90.18;99177.91;4135268;28;20196;-88
2022/01/30 07:01:40;;;;;;;11.98;4.50;;;;;;;8.07;89.65;99180.50;4158209;28;20213;-89
2022/01/30 07:04:04;;;;;;;9.05;3.90;;;;;;;8.02;90.81;99177.25;4118370;28;20628;-88
2022/01/30 07:06:27;;;;;;;10.02;3.50;;;;;;;7.99;88.91;99182.56;4163685;28;20242;-88
2022/01/30 07:08:30;;;;;;;7.00;3.80;;;;;;;8.00;88.98;99194.66;4158765;28;20203;-89
2022/01/30 07:10:34;;;;;;;5.43;3.28;;;;;;;7.98;88.87;99199.06;4125246;28;20212;-89
2022/01/30 07:12:37;;;;;;;8.30;3.75;;;;;;;8.01;89.53;99203.28;4142378;28;20214;-89
2022/01/30 07:14:40;;;;;;;8.85;4.60;;;;;;;8.03;90.02;99210.09;4137743;28;20231;-89
2022/01/30 07:16:44;;;;;;;7.45;3.70;;;;;;;8.05;89.16;99216.06;4127342;28;20260;-89
2022/01/30 07:18:47;;;;;;;7.75;3.45;;;;;;;8.02;88.66;99213.59;4141324;28;20266;-88
2022/01/30 07:20:52;;;;;;;9.13;3.60;;;;;;;8.02;87.79;99221.41;4121385;28;20211;-89
2022/01/30 07:22:55;;;;;;;11.82;4.35;;;;;;;8.02;88.08;99220.56;4124985;28;20279;-89
2022/01/30 07:24:59;;;;;;;12.43;3.67;;;;;;;8.04;87.99;99231.72;4121429;28;20244;-89
2022/01/30 07:27:02;;;;;;;8.68;3.65;;;;;;;8.06;87.84;99235.97;4130082;28;20378;-88
2022/01/30 07:29:05;;;;;;;12.38;3.60;;;;;;;8.12;86.92;99246.13;4126950;28;20216;-89
2022/01/30 07:31:08;;;;;;;12.00;4.20;;;;;;;8.10;86.50;99245.34;4128138;28;20750;-88
2022/01/30 07:33:14;;;;;;;9.82;3.67;;;;;;;8.14;85.07;99252.13;4124907;28;20251;-88
2022/01/30 07:35:18;;;;;;;7.70;3.10;;;;;;;8.16;85.10;99254.66;4137675;28;20212;-88
2022/01/30 07:37:25;;;;;;;7.53;3.53;;;;;;;8.14;85.21;99259.06;4134980;28;20234;-87
2022/01/30 07:39:30;;;;;;;7.03;3.05;;;;;;;8.14;85.60;99265.09;4120740;28;20618;-88
2022/01/30 07:41:36;;;;;;;7.18;3.05;;;;;;;8.21;84.52;99261.38;4133748;28;20240;-88
2022/01/30 07:43:39;;;;;;;7.90;2.78;;;;;;;8.26;83.62;99262.00;4141849;28;20232;-88
2022/01/30 07:45:44;;;;;;;10.20;2.95;;;;;;;8.20;83.60;99267.47;4127411;28;20219;-88
2022/01/30 07:47:47;;;;;;;8.90;3.28;;;;;;;8.18;83.39;99263.25;4138066;28;20208;-88
2022/01/30 07:49:52;;;;;;;8.95;3.60;;;;;;;8.17;84.51;99254.59;4136468;28;20208;-88
2022/01/30 07:51:55;;;;;;;8.85;3.45;;;;;;;8.20;83.28;99244.06;4145512;28;20216;-88
2022/01/30 07:53:59;;;;;;;11.88;3.38;;;;;;;8.21;82.57;99244.91;4144270;28;20199;-88
2022/01/30 07:56:02;;;;;;;6.85;3.20;;;;;;;8.18;83.59;99240.69;4122896;28;20276;-90
2022/01/30 07:58:06;;;;;;;5.22;2.60;;;;;;;8.17;82.41;99239.00;4139639;28;20208;-88
2022/01/30 08:00:10;;;;;;;9.20;3.10;;;;;;;8.19;82.43;99242.38;4159746;28;20199;-88
2022/01/30 08:02:16;;;;;;;6.20;3.75;;;;;;;8.20;83.04;99228.47;4139717;28;20266;-87
2022/01/30 08:04:21;;;;;;;9.07;3.33;;;;;;;8.15;83.06;99222.63;4145181;28;20223;-89
2022/01/30 08:06:26;;;;;;;9.93;2.85;;;;;;;8.12;82.72;99229.72;4142750;28;20230;-88
2022/01/30 08:08:29;;;;;;;8.82;3.20;;;;;;;8.11;83.28;99220.19;4163946;28;20210;-88
2022/01/30 08:10:32;;;;;;;7.70;3.25;;;;;;;8.09;81.65;99219.41;4138850;28;20208;-87
2022/01/30 08:12:37;;;;;;;10.18;3.63;;;;;;;8.12;82.74;99204.56;4126117;28;20677;-87
2022/01/30 08:14:43;;;;;;;7.03;3.15;;;;;;;8.08;81.65;99212.53;4136035;28;20263;-88
2022/01/30 08:16:46;;;;;;;10.32;3.28;;;;;;;8.01;82.47;99206.75;4139462;28;20674;-88
2022/01/30 08:18:50;;;;;;;7.68;2.95;;;;;;;7.96;83.21;99206.06;4128668;28;20213;-88
2022/01/30 08:20:54;;;;;;;6.45;3.08;;;;;;;7.88;83.08;99198.63;4132693;28;20215;-88
2022/01/30 08:23:00;;;;;;;5.47;2.75;;;;;;;7.91;83.05;99201.09;4139677;28;20223;-88
2022/01/30 08:25:03;;;;;;;11.85;2.90;;;;;;;7.90;82.51;99207.22;4161961;28;20227;-88
2022/01/30 08:27:07;;;;;;;10.40;3.50;;;;;;;7.85;82.68;99207.41;4138704;28;20654;-88
2022/01/30 08:29:10;;;;;;;6.80;2.88;;;;;;;7.85;81.75;99211.72;4146548;28;20225;-88
2022/01/30 08:31:13;;;;;;;6.97;2.90;;;;;;;7.91;82.34;99209.75;4143580;28;20669;-88
2022/01/30 08:33:17;;;;;;;14.43;3.67;;;;;;;7.93;81.28;99209.69;4141225;28;20203;-91
2022/01/30 08:35:21;;;;;;;11.02;3.60;;;;;;;7.98;82.21;99201.66;4143900;28;20204;-90
2022/01/30 08:37:25;;;;;;;9.15;2.50;;;;;;;8.13;80.96;99211.47;4122818;28;20190;-88
2022/01/30 08:39:29;;;;;;;14.40;3.53;;;;;;;8.32;80.73;99215.00;4122838;28;20604;-88
2022/01/30 08:41:32;;;;;;;6.10;3.03;;;;;;;8.54;79.81;99218.41;4141275;28;20212;-87
2022/01/30 08:43:36;;;;;;;10.10;3.90;;;;;;;8.67;78.51;99206.53;4147166;28;20597;-87
2022/01/30 08:45:40;;;;;;;11.50;3.17;;;;;;;8.77;77.51;99215.66;4126598;28;20197;-85
2022/01/30 08:47:44;;;;;;;9.15;2.90;;;;;;;8.86;76.69;99213.50;4141278;28;20250;-85
2022/01/30 08:49:48;;;;;;;10.48;2.75;;;;;;;8.97;75.58;99219.91;4130084;28;20200;-85
2022/01/30 08:51:51;;;;;;;12.55;3.67;;;;;;;9.04;74.31;99220.50;4144346;28;20247;-85
2022/01/30 08:53:54;;;;;;;6.90;2.80;;;;;;;9.11;73.42;99222.75;4128029;28;20201;-85
2022/01/30 08:55:58;;;;;;;7.53;2.10;;;;;;;9.10;73.13;99228.03;4144783;28;20338;-85
2022/01/30 08:58:07;;;;;;;7.07;2.30;;;;;;;9.09;71.99;99229.75;4138126;28;20222;-85
2022/01/30 09:00:12;;;;;;;10.60;2.80;;;;;;;9.17;72.89;99222.47;4139964;28;20203;-86
2022/01/30 09:02:15;;;;;;;8.45;3.83;;;;;;;9.32;73.64;99226.13;4154080;28;20277;-85
2022/01/30 09:04:20;;;;;;;8.95;3.10;;;;;;;9.42;73.18;99225.66;4155709;28;20242;-86
2022/01/30 09:06:23;;;;;;;6.60;2.45;;;;;;;9.48;72.41;99239.22;4139327;28;20698;-83
2022/01/30 09:08:26;;;;;;;10.15;2.90;;;;;;;9.49;72.24;99227.91;4128716;28;20794;-85
2022/01/30 09:10:30;;;;;;;7.95;2.85;;;;;;;9.51;71.92;99239.09;4140527;28;20619;-85
2022/01/30 09:12:35;;;;;;;7.40;2.25;;;;;;;9.54;72.43;99235.50;4131872;28;20213;-87
2022/01/30 09:14:42;;;;;;;12.02;3.15;;;;;;;9.66;70.95;99238.38;4143317;28;20604;-87
2022/01/30 09:16:45;;;;;;;5.38;2.90;;;;;;;9.75;71.72;99224.94;4158665;28;20204;-87
2022/01/30 09:19:08;;;;;;;10.45;3.53;;;;;;;9.88;71.30;99237.31;4141913;28;20216;-88
2022/01/30 09:21:12;;;;;;;11.93;3.07;;;;;;;9.89;68.72;99231.19;4144621;28;20204;-87
2022/01/30 09:23:16;;;;;;;13.75;2.75;;;;;;;9.85;67.71;99231.41;4132187;28;21503;-87
2022/01/30 09:25:20;;;;;;;10.73;3.08;;;;;;;9.84;66.99;99240.13;4134717;28;20229;-87
2022/01/30 09:27:23;;;;;;;8.80;2.35;;;;;;;9.88;67.85;99250.34;4127746;28;20201;-88
2022/01/30 09:29:29;;;;;;;7.55;2.30;;;;;;;9.89;65.46;99254.66;4144072;28;20262;-88
2022/01/30 09:31:34;;;;;;;11.10;2.92;;;;;;;9.89;65.54;99257.25;4124292;28;20291;-88
2022/01/30 09:33:38;;;;;;;13.75;2.45;;;;;;;9.77;64.25;99262.16;4146401;28;20201;-88
2022/01/30 09:35:41;;;;;;;9.02;2.10;;;;;;;9.59;64.95;99264.78;4135559;28;20199;-90
2022/01/30 09:37:44;;;;;;;9.70;2.28;;;;;;;9.47;65.98;99267.94;4143447;28;20652;-88
2022/01/30 09:39:47;;;;;;;7.47;2.53;;;;;;;9.45;65.68;99278.41;4120677;28;20205;-88
2022/01/30 09:41:52;;;;;;;7.55;2.20;;;;;;;9.52;63.28;99284.22;4136762;28;20631;-88
2022/01/30 09:43:56;;;;;;;8.20;2.70;;;;;;;9.70;65.10;99275.56;4140175;28;20208;-89
2022/01/30 09:46:01;;;;;;;7.68;2.65;;;;;;;9.84;63.09;99272.22;4127420;28;20209;-90
2022/01/30 09:48:05;;;;;;;6.63;2.00;;;;;;;9.83;62.05;99263.66;4140689;28;20235;-86
2022/01/30 09:50:09;;;;;;;9.55;1.70;;;;;;;9.88;62.73;99262.53;4133544;28;20635;-89
2022/01/30 09:52:12;;;;;;;13.47;2.43;;;;;;;9.91;62.20;99265.84;4150126;28;20211;-87
2022/01/30 09:54:15;;;;;;;6.60;2.20;;;;;;;9.67;62.71;99278.31;4139290;28;20642;-87
2022/01/30 09:56:19;;;;;;;12.65;2.25;;;;;;;9.52;63.27;99286.81;4143798;28;20270;-87
2022/01/30 09:58:22;;;;;;;5.60;1.98;;;;;;;9.39;63.24;99288.28;4153623;28;20459;-87
2022/01/30 10:00:31;;;;;;;11.33;3.37;;;;;;;9.19;64.09;99288.31;4156690;28;20298;-87
2022/01/30 10:02:36;;;;;;;5.60;1.73;;;;;;;9.00;62.75;99286.56;4139605;28;20663;-87
2022/01/30 10:04:39;;;;;;;10.13;2.00;;;;;;;8.89;64.14;99309.59;4126116;28;20239;-87
2022/01/30 10:06:58;;;;;;;8.07;1.95;;;;;;;8.86;63.87;99296.72;4123340;28;20724;-87
2022/01/30 10:09:10;;;;;;;8.20;1.60;;;;;;;8.81;62.43;99301.28;4143225;28;20222;-86
2022/01/30 10:11:27;;;;;;;9.25;1.70;;;;;;;8.75;63.14;99296.34;4135994;28;20310;-87
2022/01/30 10:13:32;;;;;;;4.73;2.00;;;;;;;8.72;63.19;99306.00;4138073;28;20234;-87
2022/01/30 10:15:52;;;;;;;6.50;2.17;;;;;;;8.73;63.60;99320.72;4156026;28;21237;-87
2022/01/30 10:18:00;;;;;;;14.13;2.00;;;;;;;8.76;63.68;99313.63;4126167;28;20583;-86
2022/01/30 10:20:11;;;;;;;10.20;1.92;;;;;;;8.66;62.74;99317.53;4141209;28;20200;-87
2022/01/30 10:22:15;;;;;;;5.47;2.00;;;;;;;8.71;63.52;99317.34;4142028;28;20207;-87
2022/01/30 10:24:20;;;;;;;9.50;1.88;;;;;;;8.72;64.12;99306.88;4120958;28;20207;-87
2022/01/30 10:26:31;;;;;;;12.10;2.38;;;;;;;8.62;64.16;99315.09;4130478;28;20216;-87
2022/01/30 10:28:34;;;;;;;8.82;2.47;;;;;;;8.68;63.92;99314.84;4125261;28;20229;-87
2022/01/30 10:30:42;;;;;;;6.43;2.28;;;;;;;8.72;65.07;99311.19;4126846;28;20296;-87
2022/01/30 10:32:55;;;;;;;18.35;3.65;;;;;;;8.72;65.91;99308.59;4142386;28;20210;-87
2022/01/30 10:35:02;;;;;;;7.93;2.22;;;;;;;8.78;65.83;99308.34;4159357;28;20279;-87
2022/01/30 10:37:14;;;;;;;7.45;2.42;;;;;;;8.84;65.97;99310.69;4124141;28;20263;-87
2022/01/30 10:39:22;;;;;;;5.55;2.53;;;;;;;8.86;65.54;99304.53;4129194;28;20232;-87
2022/01/30 10:41:38;;;;;;;7.45;3.50;;;;;;;8.85;66.19;99299.38;4123572;28;20307;-87
2022/01/30 10:43:54;;;;;;;6.43;2.60;;;;;;;8.99;66.38;99295.28;4137942;28;20205;-87
2022/01/30 10:45:57;;;;;;;8.32;3.03;;;;;;;9.04;65.67;99294.19;4119628;28;20210;-87
2022/01/30 10:48:11;;;;;;;8.25;2.25;;;;;;;9.12;64.56;99292.09;4140839;28;20203;-87